sensor_id;sensor_type;location;lat;lon;timestamp;P1;P2;P0
46591;PMS6003;32314;48.748;9.656;2023-05-24T00:04:48;8.00;8.00;6.00
46591;PMS6003;32314;48.748;9.656;2023-05-24T00:07:43;7.00;7.00;6.00
46591;PMS6003;32314;48.748;9.656;2023-05-24T00:10:39;6.00;6.00;4.75
46591;PMS6003;32314;48.748;9.656;2023-05-24T00:14:00;5.50;5.50;4.50
46591;PMS6003;32314;48.748;9.656;2023-05-24T00:16:46;3.75;3.00;2.50
46591;PMS6003;32314;48.748;9.656;2023-05-24T00:19:37;3.00;3.00;1.00
46591;PMS6003;32314;48.748;9.656;2023-05-24T00:22:34;3.50;1.50;1.50
46591;PMS6003;32314;48.748;9.656;2023-05-24T00:25:30;4.00;2.00;1.00
46591;PMS6003;32314;48.748;9.656;2023-05-24T00:28:19;3.75;3.75;2.75
46591;PMS6003;32314;48.748;9.656;2023-05-24T00:31:23;6.00;4.00;3.00
46591;PMS6003;32314;48.748;9.656;2023-05-24T00:34:27;3.25;3.25;2.00
46591;PMS6003;32314;48.748;9.656;2023-05-24T00:37:27;0.00;0.00;0.00
46591;PMS6003;32314;48.748;9.656;2023-05-24T00:40:21;5.50;3.00;1.00
46591;PMS6003;32314;48.748;9.656;2023-05-24T00:43:15;7.00;6.25;5.25
46591;PMS6003;32314;48.748;9.656;2023-05-24T00:46:12;8.25;7.00;4.00
46591;PMS6003;32314;48.748;9.656;2023-05-24T00:49:27;2.75;2.00;1.00
46591;PMS6003;32314;48.748;9.656;2023-05-24T00:53:01;3.00;3.00;3.00
46591;PMS6003;32314;48.748;9.656;2023-05-24T00:55:51;8.75;7.25;6.00
46591;PMS6003;32314;48.748;9.656;2023-05-24T00:58:58;3.00;3.00;1.00
46591;PMS6003;32314;48.748;9.656;2023-05-24T01:01:55;5.50;3.00;1.00
46591;PMS6003;32314;48.748;9.656;2023-05-24T01:04:50;3.00;3.00;2.00
46591;PMS6003;32314;48.748;9.656;2023-05-24T01:08:11;9.25;7.00;5.75
46591;PMS6003;32314;48.748;9.656;2023-05-24T01:35:55;5.50;3.00;2.50
46591;PMS6003;32314;48.748;9.656;2023-05-24T01:39:01;6.00;3.00;1.00
46591;PMS6003;32314;48.748;9.656;2023-05-24T01:45:43;4.00;3.00;2.00
46591;PMS6003;32314;48.748;9.656;2023-05-24T01:48:57;4.50;3.00;2.00
46591;PMS6003;32314;48.748;9.656;2023-05-24T01:52:05;4.00;4.00;3.00
46591;PMS6003;32314;48.748;9.656;2023-05-24T01:55:14;1.50;1.50;1.00
46591;PMS6003;32314;48.748;9.656;2023-05-24T01:58:06;3.75;2.50;2.00
46591;PMS6003;32314;48.748;9.656;2023-05-24T02:04:04;4.00;3.75;3.00
46591;PMS6003;32314;48.748;9.656;2023-05-24T02:06:59;1.00;1.00;1.00
46591;PMS6003;32314;48.748;9.656;2023-05-24T02:09:53;3.25;3.25;3.00
46591;PMS6003;32314;48.748;9.656;2023-05-24T02:12:50;3.00;2.50;1.00
46591;PMS6003;32314;48.748;9.656;2023-05-24T02:16:05;3.00;3.00;3.00
46591;PMS6003;32314;48.748;9.656;2023-05-24T02:19:09;2.00;2.00;1.00
46591;PMS6003;32314;48.748;9.656;2023-05-24T02:22:20;2.00;2.00;1.00
46591;PMS6003;32314;48.748;9.656;2023-05-24T02:25:25;3.00;3.00;3.00
46591;PMS6003;32314;48.748;9.656;2023-05-24T02:28:59;5.25;4.50;3.25
46591;PMS6003;32314;48.748;9.656;2023-05-24T02:32:36;1.00;1.00;1.00
46591;PMS6003;32314;48.748;9.656;2023-05-24T02:35:33;6.00;4.00;3.25
46591;PMS6003;32314;48.748;9.656;2023-05-24T02:38:48;3.75;3.75;3.00
46591;PMS6003;32314;48.748;9.656;2023-05-24T02:42:20;4.00;3.50;2.00
46591;PMS6003;32314;48.748;9.656;2023-05-24T02:45:23;8.00;3.00;1.50
46591;PMS6003;32314;48.748;9.656;2023-05-24T02:48:23;3.00;3.00;1.50
46591;PMS6003;32314;48.748;9.656;2023-05-24T02:51:44;3.00;3.00;2.00
46591;PMS6003;32314;48.748;9.656;2023-05-24T02:54:43;2.50;1.00;1.00
46591;PMS6003;32314;48.748;9.656;2023-05-24T02:57:42;3.75;3.75;3.00
46591;PMS6003;32314;48.748;9.656;2023-05-24T03:01:09;3.25;3.00;3.00
46591;PMS6003;32314;48.748;9.656;2023-05-24T03:04:08;6.25;4.00;3.25
46591;PMS6003;32314;48.748;9.656;2023-05-24T03:07:36;5.50;4.00;3.00
46591;PMS6003;32314;48.748;9.656;2023-05-24T03:13:35;6.00;3.25;3.00
46591;PMS6003;32314;48.748;9.656;2023-05-24T03:16:52;4.00;4.00;3.00
46591;PMS6003;32314;48.748;9.656;2023-05-24T03:20:13;4.00;4.00;3.00
46591;PMS6003;32314;48.748;9.656;2023-05-24T03:23:11;4.00;1.50;1.00
46591;PMS6003;32314;48.748;9.656;2023-05-24T03:26:16;6.00;3.00;3.00
46591;PMS6003;32314;48.748;9.656;2023-05-24T03:29:20;6.00;3.25;3.00
46591;PMS6003;32314;48.748;9.656;2023-05-24T03:32:20;0.00;0.00;0.00
46591;PMS6003;32314;48.748;9.656;2023-05-24T03:35:37;0.00;0.00;0.00
46591;PMS6003;32314;48.748;9.656;2023-05-24T03:38:31;3.00;3.00;3.00
46591;PMS6003;32314;48.748;9.656;2023-05-24T03:41:44;3.50;3.50;3.00
46591;PMS6003;32314;48.748;9.656;2023-05-24T03:44:57;3.00;3.00;3.00
46591;PMS6003;32314;48.748;9.656;2023-05-24T03:47:56;12.75;10.00;7.25
46591;PMS6003;32314;48.748;9.656;2023-05-24T03:50:58;7.75;3.50;3.00
46591;PMS6003;32314;48.748;9.656;2023-05-24T03:53:49;10.00;9.25;6.25
46591;PMS6003;32314;48.748;9.656;2023-05-24T03:56:45;8.50;4.00;3.00
46591;PMS6003;32314;48.748;9.656;2023-05-24T03:59:55;3.50;3.50;3.00
46591;PMS6003;32314;48.748;9.656;2023-05-24T04:03:02;3.25;3.25;1.00
46591;PMS6003;32314;48.748;9.656;2023-05-24T04:06:19;6.00;3.00;3.00
46591;PMS6003;32314;48.748;9.656;2023-05-24T04:09:16;4.00;4.00;3.00
46591;PMS6003;32314;48.748;9.656;2023-05-24T04:12:28;2.50;2.50;1.00
46591;PMS6003;32314;48.748;9.656;2023-05-24T04:15:27;4.00;4.00;3.00
46591;PMS6003;32314;48.748;9.656;2023-05-24T04:21:44;3.75;3.75;2.50
46591;PMS6003;32314;48.748;9.656;2023-05-24T04:24:36;5.25;3.00;3.00
46591;PMS6003;32314;48.748;9.656;2023-05-24T04:27:56;5.00;3.25;2.00
46591;PMS6003;32314;48.748;9.656;2023-05-24T04:31:26;3.50;3.50;2.00
46591;PMS6003;32314;48.748;9.656;2023-05-24T04:34:59;3.25;3.00;2.50
46591;PMS6003;32314;48.748;9.656;2023-05-24T04:38:04;4.00;4.00;3.00
46591;PMS6003;32314;48.748;9.656;2023-05-24T04:41:09;6.25;5.00;4.00
46591;PMS6003;32314;48.748;9.656;2023-05-24T04:44:15;9.00;9.00;7.00
46591;PMS6003;32314;48.748;9.656;2023-05-24T04:47:17;5.50;1.00;1.00
46591;PMS6003;32314;48.748;9.656;2023-05-24T04:50:07;5.00;3.00;3.00
46591;PMS6003;32314;48.748;9.656;2023-05-24T04:56:40;6.50;3.75;3.75
46591;PMS6003;32314;48.748;9.656;2023-05-24T04:59:31;6.25;6.25;4.50
46591;PMS6003;32314;48.748;9.656;2023-05-24T05:02:44;9.00;6.00;4.00
46591;PMS6003;32314;48.748;9.656;2023-05-24T05:05:43;6.00;3.00;3.00
46591;PMS6003;32314;48.748;9.656;2023-05-24T05:08:39;5.50;5.50;4.00
46591;PMS6003;32314;48.748;9.656;2023-05-24T05:12:22;3.25;2.50;1.00
46591;PMS6003;32314;48.748;9.656;2023-05-24T05:23:34;3.25;3.25;3.00
46591;PMS6003;32314;48.748;9.656;2023-05-24T06:59:44;4.00;4.00;3.00
46591;PMS6003;32314;48.748;9.656;2023-05-24T07:14:20;7.00;3.50;3.00
46591;PMS6003;32314;48.748;9.656;2023-05-24T07:23:10;5.00;5.00;4.00
46591;PMS6003;32314;48.748;9.656;2023-05-24T07:26:45;6.50;3.25;2.00
46591;PMS6003;32314;48.748;9.656;2023-05-24T07:29:42;4.00;4.00;3.00
46591;PMS6003;32314;48.748;9.656;2023-05-24T07:44:29;4.75;4.00;3.25
46591;PMS6003;32314;48.748;9.656;2023-05-24T07:55:40;4.00;4.00;3.50
46591;PMS6003;32314;48.748;9.656;2023-05-24T07:58:51;8.00;3.00;3.00
46591;PMS6003;32314;48.748;9.656;2023-05-24T08:02:03;6.00;6.00;4.00
46591;PMS6003;32314;48.748;9.656;2023-05-24T08:05:14;3.00;1.00;1.00
46591;PMS6003;32314;48.748;9.656;2023-05-24T08:08:15;3.00;3.00;3.00
46591;PMS6003;32314;48.748;9.656;2023-05-24T08:13:46;3.25;2.50;1.00
46591;PMS6003;32314;48.748;9.656;2023-05-24T08:16:44;3.00;3.00;1.50
46591;PMS6003;32314;48.748;9.656;2023-05-24T08:20:07;9.75;6.25;5.00
46591;PMS6003;32314;48.748;9.656;2023-05-24T08:26:33;9.00;6.00;5.00
46591;PMS6003;32314;48.748;9.656;2023-05-24T08:30:09;4.00;4.00;4.00
46591;PMS6003;32314;48.748;9.656;2023-05-24T08:33:51;6.75;6.75;5.25
46591;PMS6003;32314;48.748;9.656;2023-05-24T08:36:49;5.00;4.00;3.00
46591;PMS6003;32314;48.748;9.656;2023-05-24T08:43:37;6.00;3.25;3.00
46591;PMS6003;32314;48.748;9.656;2023-05-24T08:46:33;4.00;1.50;1.50
46591;PMS6003;32314;48.748;9.656;2023-05-24T08:49:20;3.75;3.75;3.00
46591;PMS6003;32314;48.748;9.656;2023-05-24T08:52:58;3.50;3.00;3.00
46591;PMS6003;32314;48.748;9.656;2023-05-24T08:55:52;10.50;8.00;6.00
46591;PMS6003;32314;48.748;9.656;2023-05-24T08:58:59;8.75;8.75;7.25
46591;PMS6003;32314;48.748;9.656;2023-05-24T09:08:45;7.75;6.75;4.00
46591;PMS6003;32314;48.748;9.656;2023-05-24T09:11:40;13.00;10.00;7.00
46591;PMS6003;32314;48.748;9.656;2023-05-24T09:17:37;11.75;9.50;6.50
46591;PMS6003;32314;48.748;9.656;2023-05-24T09:21:08;4.00;3.00;3.00
46591;PMS6003;32314;48.748;9.656;2023-05-24T09:24:50;4.00;4.00;2.50
46591;PMS6003;32314;48.748;9.656;2023-05-24T09:28:04;9.75;4.00;2.50
46591;PMS6003;32314;48.748;9.656;2023-05-24T09:34:46;3.00;3.00;2.00
46591;PMS6003;32314;48.748;9.656;2023-05-24T09:46:04;11.25;9.25;6.00
46591;PMS6003;32314;48.748;9.656;2023-05-24T09:48:57;8.25;8.25;6.00
46591;PMS6003;32314;48.748;9.656;2023-05-24T10:08:34;3.25;3.25;3.00
46591;PMS6003;32314;48.748;9.656;2023-05-24T10:22:41;8.50;6.00;4.00
46591;PMS6003;32314;48.748;9.656;2023-05-24T10:34:41;6.75;4.50;3.25
46591;PMS6003;32314;48.748;9.656;2023-05-24T10:43:22;3.50;3.50;3.25
46591;PMS6003;32314;48.748;9.656;2023-05-24T10:46:27;7.00;7.00;5.50
46591;PMS6003;32314;48.748;9.656;2023-05-24T10:49:37;8.50;7.50;3.75
46591;PMS6003;32314;48.748;9.656;2023-05-24T10:52:48;4.00;2.00;2.00
46591;PMS6003;32314;48.748;9.656;2023-05-24T10:56:31;4.50;4.50;3.00
46591;PMS6003;32314;48.748;9.656;2023-05-24T10:59:55;13.75;11.00;6.25
46591;PMS6003;32314;48.748;9.656;2023-05-24T11:09:39;5.50;3.25;3.00
46591;PMS6003;32314;48.748;9.656;2023-05-24T11:12:44;3.50;3.50;3.00
46591;PMS6003;32314;48.748;9.656;2023-05-24T11:16:07;10.50;9.25;7.00
46591;PMS6003;32314;48.748;9.656;2023-05-24T11:18:56;10.50;8.50;6.25
46591;PMS6003;32314;48.748;9.656;2023-05-24T11:22:06;13.00;8.25;6.00
46591;PMS6003;32314;48.748;9.656;2023-05-24T11:25:03;5.00;5.00;4.00
46591;PMS6003;32314;48.748;9.656;2023-05-24T11:28:05;11.75;11.75;8.25
46591;PMS6003;32314;48.748;9.656;2023-05-24T11:31:41;9.75;9.75;7.25
46591;PMS6003;32314;48.748;9.656;2023-05-24T11:34:57;12.25;6.25;6.00
46591;PMS6003;32314;48.748;9.656;2023-05-24T11:38:18;5.50;4.75;3.50
46591;PMS6003;32314;48.748;9.656;2023-05-24T11:46:37;3.50;3.50;1.50
46591;PMS6003;32314;48.748;9.656;2023-05-24T11:53:32;9.00;5.50;4.75
46591;PMS6003;32314;48.748;9.656;2023-05-24T11:56:41;3.00;3.00;2.50
46591;PMS6003;32314;48.748;9.656;2023-05-24T11:59:43;4.50;4.50;3.25
46591;PMS6003;32314;48.748;9.656;2023-05-24T12:02:40;4.00;2.50;1.00
46591;PMS6003;32314;48.748;9.656;2023-05-24T12:05:49;8.50;4.00;3.25
46591;PMS6003;32314;48.748;9.656;2023-05-24T12:09:18;9.75;4.50;4.00
46591;PMS6003;32314;48.748;9.656;2023-05-24T12:12:12;6.25;3.00;2.50
46591;PMS6003;32314;48.748;9.656;2023-05-24T12:15:10;6.00;3.50;3.25
46591;PMS6003;32314;48.748;9.656;2023-05-24T12:18:15;11.25;7.50;7.00
46591;PMS6003;32314;48.748;9.656;2023-05-24T12:21:09;9.25;9.25;6.00
46591;PMS6003;32314;48.748;9.656;2023-05-24T12:24:03;11.00;9.00;7.75
46591;PMS6003;32314;48.748;9.656;2023-05-24T12:27:32;10.00;8.25;7.00
46591;PMS6003;32314;48.748;9.656;2023-05-24T12:30:27;9.50;9.50;8.00
46591;PMS6003;32314;48.748;9.656;2023-05-24T12:33:30;8.00;8.00;7.00
46591;PMS6003;32314;48.748;9.656;2023-05-24T12:36:30;13.00;10.25;8.00
46591;PMS6003;32314;48.748;9.656;2023-05-24T12:42:30;10.75;10.75;7.75
46591;PMS6003;32314;48.748;9.656;2023-05-24T12:45:16;11.00;11.00;7.75
46591;PMS6003;32314;48.748;9.656;2023-05-24T12:48:13;11.25;9.50;8.00
46591;PMS6003;32314;48.748;9.656;2023-05-24T12:50:59;9.00;9.00;7.75
46591;PMS6003;32314;48.748;9.656;2023-05-24T12:53:57;10.50;9.00;7.75
46591;PMS6003;32314;48.748;9.656;2023-05-24T12:59:33;8.50;8.50;8.00
46591;PMS6003;32314;48.748;9.656;2023-05-24T13:02:24;7.75;7.75;6.25
46591;PMS6003;32314;48.748;9.656;2023-05-24T13:05:11;9.75;8.00;7.25
46591;PMS6003;32314;48.748;9.656;2023-05-24T13:07:59;10.00;8.50;7.00
46591;PMS6003;32314;48.748;9.656;2023-05-24T13:10:48;11.25;10.00;8.75
46591;PMS6003;32314;48.748;9.656;2023-05-24T13:13:42;14.75;9.75;8.25
46591;PMS6003;32314;48.748;9.656;2023-05-24T13:16:42;9.50;8.25;6.50
46591;PMS6003;32314;48.748;9.656;2023-05-24T13:19:31;7.00;7.00;6.50
46591;PMS6003;32314;48.748;9.656;2023-05-24T13:22:22;8.75;8.25;6.25
46591;PMS6003;32314;48.748;9.656;2023-05-24T13:25:35;7.50;7.50;7.50
46591;PMS6003;32314;48.748;9.656;2023-05-24T13:28:24;8.50;7.00;6.00
46591;PMS6003;32314;48.748;9.656;2023-05-24T13:34:22;7.00;5.75;5.00
46591;PMS6003;32314;48.748;9.656;2023-05-24T13:37:11;7.00;7.00;6.00
46591;PMS6003;32314;48.748;9.656;2023-05-24T13:39:58;9.75;7.25;5.75
46591;PMS6003;32314;48.748;9.656;2023-05-24T13:42:44;7.50;7.50;6.00
46591;PMS6003;32314;48.748;9.656;2023-05-24T13:45:45;7.25;6.00;5.25
46591;PMS6003;32314;48.748;9.656;2023-05-24T13:48:33;7.75;6.75;5.50
46591;PMS6003;32314;48.748;9.656;2023-05-24T13:51:20;5.25;5.25;4.50
46591;PMS6003;32314;48.748;9.656;2023-05-24T13:54:07;5.50;4.25;4.00
46591;PMS6003;32314;48.748;9.656;2023-05-24T13:56:53;4.50;4.50;4.00
46591;PMS6003;32314;48.748;9.656;2023-05-24T13:59:41;4.00;4.00;4.00
46591;PMS6003;32314;48.748;9.656;2023-05-24T14:02:30;5.00;5.00;3.50
46591;PMS6003;32314;48.748;9.656;2023-05-24T14:05:17;4.00;4.00;4.00
46591;PMS6003;32314;48.748;9.656;2023-05-24T14:08:06;5.25;4.25;4.00
46591;PMS6003;32314;48.748;9.656;2023-05-24T14:10:55;4.25;4.25;4.00
46591;PMS6003;32314;48.748;9.656;2023-05-24T14:13:41;5.25;5.25;4.25
46591;PMS6003;32314;48.748;9.656;2023-05-24T14:16:29;4.25;4.25;3.50
46591;PMS6003;32314;48.748;9.656;2023-05-24T14:19:20;4.00;4.00;3.00
46591;PMS6003;32314;48.748;9.656;2023-05-24T14:22:15;10.75;6.00;5.25
46591;PMS6003;32314;48.748;9.656;2023-05-24T14:25:02;7.25;6.00;4.75
46591;PMS6003;32314;48.748;9.656;2023-05-24T14:27:52;5.75;5.25;4.75
46591;PMS6003;32314;48.748;9.656;2023-05-24T14:30:38;4.50;3.50;3.00
46591;PMS6003;32314;48.748;9.656;2023-05-24T14:33:24;4.50;3.75;3.00
46591;PMS6003;32314;48.748;9.656;2023-05-24T14:36:12;2.50;2.50;2.00
46591;PMS6003;32314;48.748;9.656;2023-05-24T14:39:04;2.00;2.00;1.75
46591;PMS6003;32314;48.748;9.656;2023-05-24T14:41:51;4.00;3.00;3.00
46591;PMS6003;32314;48.748;9.656;2023-05-24T14:44:37;4.00;2.00;2.00
46591;PMS6003;32314;48.748;9.656;2023-05-24T14:47:23;2.25;2.25;2.25
46591;PMS6003;32314;48.748;9.656;2023-05-24T14:50:09;2.50;2.00;2.00
46591;PMS6003;32314;48.748;9.656;2023-05-24T14:52:55;2.00;2.00;2.00
46591;PMS6003;32314;48.748;9.656;2023-05-24T14:55:43;3.25;3.25;2.25
46591;PMS6003;32314;48.748;9.656;2023-05-24T14:58:29;3.00;3.00;2.00
46591;PMS6003;32314;48.748;9.656;2023-05-24T15:01:15;3.75;3.25;2.75
46591;PMS6003;32314;48.748;9.656;2023-05-24T15:04:01;4.00;4.00;3.00
46591;PMS6003;32314;48.748;9.656;2023-05-24T15:06:51;2.00;2.00;2.00
46591;PMS6003;32314;48.748;9.656;2023-05-24T15:09:37;5.00;3.00;3.00
46591;PMS6003;32314;48.748;9.656;2023-05-24T15:12:23;3.75;3.00;2.00
46591;PMS6003;32314;48.748;9.656;2023-05-24T15:15:09;4.50;4.25;4.00
46591;PMS6003;32314;48.748;9.656;2023-05-24T15:17:55;3.50;3.50;3.00
46591;PMS6003;32314;48.748;9.656;2023-05-24T15:20:43;3.00;3.00;3.00
46591;PMS6003;32314;48.748;9.656;2023-05-24T15:23:29;5.00;3.50;3.25
46591;PMS6003;32314;48.748;9.656;2023-05-24T15:26:15;4.50;3.00;3.00
46591;PMS6003;32314;48.748;9.656;2023-05-24T15:29:01;5.00;4.75;4.00
46591;PMS6003;32314;48.748;9.656;2023-05-24T15:31:49;4.75;3.00;3.00
46591;PMS6003;32314;48.748;9.656;2023-05-24T15:34:34;3.00;3.00;3.00
46591;PMS6003;32314;48.748;9.656;2023-05-24T15:37:20;2.75;2.00;2.00
46591;PMS6003;32314;48.748;9.656;2023-05-24T15:40:07;6.00;6.00;5.00
46591;PMS6003;32314;48.748;9.656;2023-05-24T15:42:57;3.00;3.00;3.00
46591;PMS6003;32314;48.748;9.656;2023-05-24T15:45:43;4.75;3.75;3.50
46591;PMS6003;32314;48.748;9.656;2023-05-24T15:48:29;4.50;4.50;3.25
46591;PMS6003;32314;48.748;9.656;2023-05-24T15:51:15;5.25;4.75;4.00
46591;PMS6003;32314;48.748;9.656;2023-05-24T15:54:02;3.00;3.00;3.00
46591;PMS6003;32314;48.748;9.656;2023-05-24T15:56:47;5.50;4.00;3.75
46591;PMS6003;32314;48.748;9.656;2023-05-24T15:59:34;3.25;3.25;2.50
46591;PMS6003;32314;48.748;9.656;2023-05-24T16:02:22;3.25;3.25;3.00
46591;PMS6003;32314;48.748;9.656;2023-05-24T16:05:13;3.00;3.00;3.00
46591;PMS6003;32314;48.748;9.656;2023-05-24T16:11:14;3.00;3.00;2.50
46591;PMS6003;32314;48.748;9.656;2023-05-24T16:13:59;4.50;4.25;3.50
46591;PMS6003;32314;48.748;9.656;2023-05-24T16:16:50;3.00;3.00;2.50
46591;PMS6003;32314;48.748;9.656;2023-05-24T16:19:37;3.75;3.25;3.00
46591;PMS6003;32314;48.748;9.656;2023-05-24T16:22:23;4.50;3.75;3.75
46591;PMS6003;32314;48.748;9.656;2023-05-24T16:25:09;2.25;2.25;2.00
46591;PMS6003;32314;48.748;9.656;2023-05-24T16:27:55;3.00;3.00;2.00
46591;PMS6003;32314;48.748;9.656;2023-05-24T16:30:52;2.75;2.75;2.25
46591;PMS6003;32314;48.748;9.656;2023-05-24T16:33:43;2.00;2.00;2.00
46591;PMS6003;32314;48.748;9.656;2023-05-24T16:36:29;3.00;3.00;2.50
46591;PMS6003;32314;48.748;9.656;2023-05-24T16:39:16;3.00;3.00;3.00
46591;PMS6003;32314;48.748;9.656;2023-05-24T16:42:07;4.00;4.00;3.75
46591;PMS6003;32314;48.748;9.656;2023-05-24T16:44:53;3.00;3.00;3.00
46591;PMS6003;32314;48.748;9.656;2023-05-24T16:47:42;2.00;2.00;2.00
46591;PMS6003;32314;48.748;9.656;2023-05-24T16:50:31;5.00;3.25;3.00
46591;PMS6003;32314;48.748;9.656;2023-05-24T16:53:12;1.50;1.50;1.00
46591;PMS6003;32314;48.748;9.656;2023-05-24T16:55:58;2.50;2.50;2.00
46591;PMS6003;32314;48.748;9.656;2023-05-24T16:58:44;2.75;2.75;2.00
46591;PMS6003;32314;48.748;9.656;2023-05-24T17:01:30;2.25;2.25;2.00
46591;PMS6003;32314;48.748;9.656;2023-05-24T17:04:18;3.50;3.50;2.00
46591;PMS6003;32314;48.748;9.656;2023-05-24T17:07:04;4.75;4.75;4.00
46591;PMS6003;32314;48.748;9.656;2023-05-24T17:09:51;3.75;3.50;2.75
46591;PMS6003;32314;48.748;9.656;2023-05-24T17:12:48;2.75;2.75;2.00
46591;PMS6003;32314;48.748;9.656;2023-05-24T17:15:44;4.00;4.00;3.00
46591;PMS6003;32314;48.748;9.656;2023-05-24T17:18:58;3.00;3.00;3.00
46591;PMS6003;32314;48.748;9.656;2023-05-24T17:24:26;5.50;4.00;3.25
46591;PMS6003;32314;48.748;9.656;2023-05-24T17:27:14;5.25;3.50;2.25
46591;PMS6003;32314;48.748;9.656;2023-05-24T17:30:00;4.00;4.00;3.00
46591;PMS6003;32314;48.748;9.656;2023-05-24T17:32:58;0.75;0.75;0.25
46591;PMS6003;32314;48.748;9.656;2023-05-24T17:36:04;7.75;3.25;2.00
46591;PMS6003;32314;48.748;9.656;2023-05-24T17:38:54;5.00;4.00;4.00
46591;PMS6003;32314;48.748;9.656;2023-05-24T17:41:45;3.00;3.00;3.00
46591;PMS6003;32314;48.748;9.656;2023-05-24T17:44:31;4.25;4.25;4.00
46591;PMS6003;32314;48.748;9.656;2023-05-24T17:50:31;3.25;3.25;3.00
46591;PMS6003;32314;48.748;9.656;2023-05-24T17:53:28;5.25;2.00;2.00
46591;PMS6003;32314;48.748;9.656;2023-05-24T17:56:17;0.75;0.75;0.75
46591;PMS6003;32314;48.748;9.656;2023-05-24T17:59:11;2.50;1.00;0.00
46591;PMS6003;32314;48.748;9.656;2023-05-24T18:02:00;1.00;1.00;1.00
46591;PMS6003;32314;48.748;9.656;2023-05-24T18:04:48;3.25;1.00;1.00
46591;PMS6003;32314;48.748;9.656;2023-05-24T18:07:42;3.00;3.00;3.00
46591;PMS6003;32314;48.748;9.656;2023-05-24T18:10:33;1.00;1.00;0.75
46591;PMS6003;32314;48.748;9.656;2023-05-24T18:13:22;1.75;1.00;1.00
46591;PMS6003;32314;48.748;9.656;2023-05-24T18:16:13;3.00;0.00;0.00
46591;PMS6003;32314;48.748;9.656;2023-05-24T18:19:05;0.25;0.25;0.00
46591;PMS6003;32314;48.748;9.656;2023-05-24T18:22:07;0.00;0.00;0.00
46591;PMS6003;32314;48.748;9.656;2023-05-24T18:25:06;0.75;0.75;0.00
46591;PMS6003;32314;48.748;9.656;2023-05-24T18:27:57;0.50;0.50;0.00
46591;PMS6003;32314;48.748;9.656;2023-05-24T18:33:32;0.00;0.00;0.00
46591;PMS6003;32314;48.748;9.656;2023-05-24T18:36:34;0.00;0.00;0.00
46591;PMS6003;32314;48.748;9.656;2023-05-24T18:39:46;0.75;0.75;0.00
46591;PMS6003;32314;48.748;9.656;2023-05-24T18:43:02;0.00;0.00;0.00
46591;PMS6003;32314;48.748;9.656;2023-05-24T18:45:54;0.00;0.00;0.00
46591;PMS6003;32314;48.748;9.656;2023-05-24T18:49:12;0.00;0.00;0.00
46591;PMS6003;32314;48.748;9.656;2023-05-24T18:52:01;0.00;0.00;0.00
46591;PMS6003;32314;48.748;9.656;2023-05-24T18:55:08;0.00;0.00;0.00
46591;PMS6003;32314;48.748;9.656;2023-05-24T19:01:14;3.00;0.00;0.00
46591;PMS6003;32314;48.748;9.656;2023-05-24T19:04:09;0.00;0.00;0.00
46591;PMS6003;32314;48.748;9.656;2023-05-24T19:07:00;3.00;0.00;0.00
46591;PMS6003;32314;48.748;9.656;2023-05-24T19:10:13;0.00;0.00;0.00
46591;PMS6003;32314;48.748;9.656;2023-05-24T19:13:23;0.00;0.00;0.00
46591;PMS6003;32314;48.748;9.656;2023-05-24T19:16:35;0.00;0.00;0.00
46591;PMS6003;32314;48.748;9.656;2023-05-24T19:19:41;0.00;0.00;0.00
46591;PMS6003;32314;48.748;9.656;2023-05-24T19:26:16;3.00;3.00;0.00
46591;PMS6003;32314;48.748;9.656;2023-05-24T19:29:35;0.00;0.00;0.00
46591;PMS6003;32314;48.748;9.656;2023-05-24T19:35:06;0.00;0.00;0.00
46591;PMS6003;32314;48.748;9.656;2023-05-24T19:38:09;3.00;2.00;2.00
46591;PMS6003;32314;48.748;9.656;2023-05-24T19:41:18;1.00;1.00;1.00
46591;PMS6003;32314;48.748;9.656;2023-05-24T19:44:16;0.25;0.00;0.00
46591;PMS6003;32314;48.748;9.656;2023-05-24T19:47:12;2.00;2.00;1.00
46591;PMS6003;32314;48.748;9.656;2023-05-24T19:50:18;1.00;1.00;0.00
46591;PMS6003;32314;48.748;9.656;2023-05-24T19:53:04;0.00;0.00;0.00
46591;PMS6003;32314;48.748;9.656;2023-05-24T19:55:50;1.00;1.00;1.00
46591;PMS6003;32314;48.748;9.656;2023-05-24T19:58:36;3.25;1.50;0.00
46591;PMS6003;32314;48.748;9.656;2023-05-24T20:01:28;0.00;0.00;0.00
46591;PMS6003;32314;48.748;9.656;2023-05-24T20:04:17;1.00;1.00;1.00
46591;PMS6003;32314;48.748;9.656;2023-05-24T20:07:03;3.00;0.00;0.00
46591;PMS6003;32314;48.748;9.656;2023-05-24T20:10:02;1.50;0.00;0.00
46591;PMS6003;32314;48.748;9.656;2023-05-24T20:12:51;1.00;1.00;1.00
46591;PMS6003;32314;48.748;9.656;2023-05-24T20:15:40;0.00;0.00;0.00
46591;PMS6003;32314;48.748;9.656;2023-05-24T20:18:26;0.00;0.00;0.00
46591;PMS6003;32314;48.748;9.656;2023-05-24T20:21:15;0.00;0.00;0.00
46591;PMS6003;32314;48.748;9.656;2023-05-24T20:24:02;1.00;1.00;1.00
46591;PMS6003;32314;48.748;9.656;2023-05-24T20:26:51;1.00;1.00;1.00
46591;PMS6003;32314;48.748;9.656;2023-05-24T20:29:41;0.75;0.75;0.75
46591;PMS6003;32314;48.748;9.656;2023-05-24T20:32:27;1.00;1.00;1.00
46591;PMS6003;32314;48.748;9.656;2023-05-24T20:35:13;0.00;0.00;0.00
46591;PMS6003;32314;48.748;9.656;2023-05-24T20:38:11;1.00;1.00;1.00
46591;PMS6003;32314;48.748;9.656;2023-05-24T20:40:57;0.00;0.00;0.00
46591;PMS6003;32314;48.748;9.656;2023-05-24T20:43:44;1.00;1.00;1.00
46591;PMS6003;32314;48.748;9.656;2023-05-24T20:46:31;4.50;3.00;1.50
46591;PMS6003;32314;48.748;9.656;2023-05-24T20:49:16;0.00;0.00;0.00
46591;PMS6003;32314;48.748;9.656;2023-05-24T20:52:02;0.00;0.00;0.00
46591;PMS6003;32314;48.748;9.656;2023-05-24T20:54:51;0.25;0.25;0.25
46591;PMS6003;32314;48.748;9.656;2023-05-24T20:57:40;1.00;1.00;0.00
46591;PMS6003;32314;48.748;9.656;2023-05-24T21:00:31;3.00;1.00;0.00
46591;PMS6003;32314;48.748;9.656;2023-05-24T21:03:17;1.00;1.00;0.00
46591;PMS6003;32314;48.748;9.656;2023-05-24T21:06:05;0.50;0.50;0.00
46591;PMS6003;32314;48.748;9.656;2023-05-24T21:08:51;1.25;0.50;0.50
46591;PMS6003;32314;48.748;9.656;2023-05-24T21:11:37;0.00;0.00;0.00
46591;PMS6003;32314;48.748;9.656;2023-05-24T21:14:23;3.00;0.00;0.00
46591;PMS6003;32314;48.748;9.656;2023-05-24T21:17:11;1.00;1.00;1.00
46591;PMS6003;32314;48.748;9.656;2023-05-24T21:19:57;0.25;0.25;0.00
46591;PMS6003;32314;48.748;9.656;2023-05-24T21:22:45;3.50;1.00;0.00
46591;PMS6003;32314;48.748;9.656;2023-05-24T21:25:33;0.25;0.25;0.00
46591;PMS6003;32314;48.748;9.656;2023-05-24T21:28:19;0.00;0.00;0.00
46591;PMS6003;32314;48.748;9.656;2023-05-24T21:31:08;1.00;1.00;1.00
46591;PMS6003;32314;48.748;9.656;2023-05-24T21:33:54;2.50;0.00;0.00
46591;PMS6003;32314;48.748;9.656;2023-05-24T21:36:40;6.00;1.00;1.00
46591;PMS6003;32314;48.748;9.656;2023-05-24T21:39:28;2.00;0.67;0.00
46591;PMS6003;32314;48.748;9.656;2023-05-24T21:42:14;0.00;0.00;0.00
46591;PMS6003;32314;48.748;9.656;2023-05-24T21:45:00;0.75;0.00;0.00
46591;PMS6003;32314;48.748;9.656;2023-05-24T21:47:49;0.00;0.00;0.00
46591;PMS6003;32314;48.748;9.656;2023-05-24T21:50:35;0.25;0.25;0.25
46591;PMS6003;32314;48.748;9.656;2023-05-24T21:53:21;4.00;2.50;1.00
46591;PMS6003;32314;48.748;9.656;2023-05-24T21:56:07;0.00;0.00;0.00
46591;PMS6003;32314;48.748;9.656;2023-05-24T21:58:53;1.75;0.75;0.50
46591;PMS6003;32314;48.748;9.656;2023-05-24T22:01:42;0.33;0.33;0.33
46591;PMS6003;32314;48.748;9.656;2023-05-24T22:04:30;1.00;1.00;0.00
46591;PMS6003;32314;48.748;9.656;2023-05-24T22:07:16;1.00;1.00;1.00
46591;PMS6003;32314;48.748;9.656;2023-05-24T22:10:02;0.25;0.25;0.25
46591;PMS6003;32314;48.748;9.656;2023-05-24T22:12:51;1.00;1.00;1.00
46591;PMS6003;32314;48.748;9.656;2023-05-24T22:15:37;0.00;0.00;0.00
46591;PMS6003;32314;48.748;9.656;2023-05-24T22:18:26;3.00;0.00;0.00
46591;PMS6003;32314;48.748;9.656;2023-05-24T22:21:18;0.67;0.67;0.00